Time;durP1;ratioP1;P1;durP2;ratioP2;P2;SDS_P1;SDS_P2;PMS_P1;PMS_P2;Temp;Humidity;BMP_temperature;BMP_pressure;BME280_temperature;BME280_humidity;BME280_pressure;Samples;Min_cycle;Max_cycle;Signal;HPM_P1;HPM_P2
2020/12/03 00:01:08;;;;;;;51.40;28.20;;;;;;;;;;5050066;28;20017;-87
2020/12/03 00:04:03;;;;;;;59.55;28.45;;;;;;;;;;5055355;28;20048;-87
2020/12/03 00:06:51;;;;;;;50.65;26.23;;;;;;;;;;5048165;28;20372;-87
2020/12/03 00:09:36;;;;;;;56.83;26.67;;;;;;;;;;5048429;28;20454;-87
2020/12/03 00:12:22;;;;;;;50.60;26.40;;;;;;;;;;5031533;28;20031;-87
2020/12/03 00:15:07;;;;;;;45.55;25.98;;;;;;;;;;5040382;28;20079;-87
2020/12/03 00:17:52;;;;;;;42.75;23.38;;;;;;;;;;5041197;28;20442;-85
2020/12/03 00:20:37;;;;;;;44.25;25.75;;;;;;;;;;5052299;28;20016;-85
2020/12/03 00:23:23;;;;;;;44.45;24.30;;;;;;;;;;5049739;28;20111;-86
2020/12/03 00:26:08;;;;;;;51.15;29.08;;;;;;;;;;5057261;28;20020;-86
2020/12/03 00:28:53;;;;;;;42.58;22.45;;;;;;;;;;5052823;28;20047;-86
2020/12/03 00:31:41;;;;;;;47.78;26.25;;;;;;;;;;5071123;28;20048;-86
2020/12/03 00:34:26;;;;;;;49.58;25.88;;;;;;;;;;5077463;28;20023;-86
2020/12/03 00:37:11;;;;;;;50.80;27.58;;;;;;;;;;5049794;28;20024;-86
2020/12/03 00:39:59;;;;;;;51.38;25.42;;;;;;;;;;5055590;28;20021;-85
2020/12/03 00:42:44;;;;;;;50.95;25.65;;;;;;;;;;5042786;28;20483;-86
2020/12/03 00:45:30;;;;;;;53.55;27.70;;;;;;;;;;5042677;28;20067;-87
2020/12/03 00:48:16;;;;;;;45.47;23.35;;;;;;;;;;5043214;28;20074;-84
2020/12/03 00:51:01;;;;;;;46.35;22.00;;;;;;;;;;5044614;28;20016;-85
2020/12/03 00:53:46;;;;;;;43.25;23.80;;;;;;;;;;5046487;28;20383;-85
2020/12/03 00:56:32;;;;;;;44.88;24.00;;;;;;;;;;5048815;28;20107;-86
2020/12/03 00:59:17;;;;;;;53.28;26.20;;;;;;;;;;5035200;28;20020;-85
2020/12/03 01:02:03;;;;;;;56.30;28.08;;;;;;;;;;5046127;28;20032;-86
2020/12/03 01:04:48;;;;;;;47.35;23.25;;;;;;;;;;5045473;28;20511;-86
2020/12/03 01:07:34;;;;;;;51.50;27.63;;;;;;;;;;5048966;28;20674;-86
2020/12/03 01:10:29;;;;;;;50.38;25.98;;;;;;;;;;5052567;28;20111;-86
2020/12/03 01:13:14;;;;;;;50.45;26.75;;;;;;;;;;5041261;28;20018;-87
2020/12/03 01:16:00;;;;;;;49.83;26.60;;;;;;;;;;5052750;28;20021;-87
2020/12/03 01:18:46;;;;;;;50.88;26.67;;;;;;;;;;5045191;28;20356;-87
2020/12/03 01:21:31;;;;;;;47.47;23.63;;;;;;;;;;5056292;28;20035;-88
2020/12/03 01:24:17;;;;;;;51.80;26.95;;;;;;;;;;5048357;28;20028;-86
2020/12/03 01:27:02;;;;;;;45.83;25.55;;;;;;;;;;5047128;28;20017;-86
2020/12/03 01:29:47;;;;;;;50.47;26.42;;;;;;;;;;5027807;28;20391;-86
2020/12/03 01:32:33;;;;;;;50.47;25.40;;;;;;;;;;5043975;28;20744;-87
2020/12/03 01:35:18;;;;;;;55.92;27.95;;;;;;;;;;5045041;28;20016;-86
2020/12/03 01:38:04;;;;;;;59.17;27.95;;;;;;;;;;5049096;28;20021;-86
2020/12/03 01:40:50;;;;;;;51.75;27.98;;;;;;;;;;5048050;28;20535;-86
2020/12/03 01:43:40;;;;;;;51.42;27.38;;;;;;;;;;5046259;28;20028;-86
2020/12/03 01:46:26;;;;;;;43.33;23.63;;;;;;;;;;5030276;28;20024;-86
2020/12/03 01:49:19;;;;;;;50.25;26.45;;;;;;;;;;5051830;28;20508;-86
2020/12/03 01:52:05;;;;;;;55.22;28.13;;;;;;;;;;5046415;28;20038;-85
2020/12/03 01:54:50;;;;;;;51.92;26.45;;;;;;;;;;5039666;28;20049;-85
2020/12/03 01:57:51;;;;;;;50.42;25.35;;;;;;;;;;5060558;28;20211;-85
2020/12/03 02:00:36;;;;;;;47.78;27.05;;;;;;;;;;5041400;28;20028;-86
2020/12/03 02:03:22;;;;;;;57.20;28.23;;;;;;;;;;5045956;28;20016;-86
2020/12/03 02:06:07;;;;;;;50.83;25.17;;;;;;;;;;5042836;28;20032;-85
2020/12/03 02:08:53;;;;;;;55.45;27.20;;;;;;;;;;5044417;28;20020;-86
2020/12/03 02:11:38;;;;;;;52.63;26.80;;;;;;;;;;5049045;28;20055;-86
2020/12/03 02:14:24;;;;;;;50.53;27.25;;;;;;;;;;5044257;28;20411;-86
2020/12/03 02:17:09;;;;;;;48.13;25.02;;;;;;;;;;5035409;28;20388;-85
2020/12/03 02:19:58;;;;;;;46.22;23.17;;;;;;;;;;5044986;28;20444;-86
2020/12/03 02:22:43;;;;;;;51.22;26.80;;;;;;;;;;5040565;28;20032;-87
2020/12/03 02:25:31;;;;;;;47.28;24.85;;;;;;;;;;5047318;28;20059;-88
2020/12/03 02:28:16;;;;;;;54.08;27.02;;;;;;;;;;5051422;28;20028;-88
2020/12/03 02:31:01;;;;;;;52.70;28.98;;;;;;;;;;5045292;28;20357;-88
2020/12/03 02:33:46;;;;;;;44.20;23.05;;;;;;;;;;5047018;28;20116;-88
2020/12/03 02:36:32;;;;;;;55.60;28.48;;;;;;;;;;5051199;28;20093;-87
2020/12/03 02:39:17;;;;;;;52.25;29.40;;;;;;;;;;5050423;28;20024;-87
2020/12/03 02:42:04;;;;;;;51.45;27.77;;;;;;;;;;5045663;28;20431;-88
2020/12/03 02:44:49;;;;;;;51.17;27.10;;;;;;;;;;5054195;28;20028;-87
2020/12/03 02:47:34;;;;;;;50.17;26.58;;;;;;;;;;5047630;28;20047;-88
2020/12/03 02:50:20;;;;;;;54.22;27.75;;;;;;;;;;5047823;28;20067;-87
2020/12/03 02:53:05;;;;;;;54.03;27.88;;;;;;;;;;5036687;28;20056;-87
2020/12/03 02:55:50;;;;;;;50.05;26.83;;;;;;;;;;5021709;28;20132;-86
2020/12/03 02:58:35;;;;;;;41.92;24.08;;;;;;;;;;5019433;28;20022;-87
2020/12/03 03:01:21;;;;;;;45.47;25.95;;;;;;;;;;5018651;28;20017;-87
2020/12/03 03:04:06;;;;;;;49.53;26.05;;;;;;;;;;5022085;28;20022;-88
2020/12/03 03:06:52;;;;;;;52.22;28.65;;;;;;;;;;5022135;28;20034;-87
2020/12/03 03:09:37;;;;;;;50.15;27.17;;;;;;;;;;5020977;28;20052;-87
2020/12/03 03:12:23;;;;;;;51.03;30.38;;;;;;;;;;5026243;28;20026;-87
2020/12/03 03:15:08;;;;;;;51.15;28.25;;;;;;;;;;5025535;28;20530;-85
2020/12/03 03:17:53;;;;;;;56.85;30.92;;;;;;;;;;5009522;28;20034;-85
2020/12/03 03:20:38;;;;;;;53.15;28.08;;;;;;;;;;5019184;28;20417;-85
2020/12/03 03:23:23;;;;;;;51.10;30.27;;;;;;;;;;5023265;28;20035;-86
2020/12/03 03:26:09;;;;;;;48.33;27.25;;;;;;;;;;5027147;28;20068;-87
2020/12/03 03:28:54;;;;;;;56.25;30.52;;;;;;;;;;5021364;28;20443;-86
2020/12/03 03:31:39;;;;;;;57.88;31.50;;;;;;;;;;5027306;28;20044;-86
2020/12/03 03:34:25;;;;;;;56.22;31.40;;;;;;;;;;5023799;28;21537;-86
2020/12/03 03:37:10;;;;;;;60.65;29.65;;;;;;;;;;5020544;28;20025;-85
2020/12/03 03:39:55;;;;;;;52.53;30.10;;;;;;;;;;5021983;28;20049;-86
2020/12/03 03:42:41;;;;;;;47.38;28.75;;;;;;;;;;5026482;28;20056;-85
2020/12/03 03:45:27;;;;;;;52.72;30.27;;;;;;;;;;5020502;28;20040;-85
2020/12/03 03:48:12;;;;;;;48.85;28.65;;;;;;;;;;5016880;28;20048;-86
2020/12/03 03:50:57;;;;;;;54.80;28.83;;;;;;;;;;5023322;28;20061;-86
2020/12/03 03:53:43;;;;;;;50.78;26.90;;;;;;;;;;5034899;28;20132;-86
2020/12/03 03:56:28;;;;;;;52.75;31.42;;;;;;;;;;5049616;28;20027;-87
2020/12/03 03:59:13;;;;;;;49.15;27.45;;;;;;;;;;5054659;28;20036;-87
2020/12/03 04:01:58;;;;;;;55.83;31.17;;;;;;;;;;5047808;28;20107;-86
2020/12/03 04:04:44;;;;;;;50.33;27.42;;;;;;;;;;5045029;28;20115;-86
2020/12/03 04:07:29;;;;;;;54.97;29.17;;;;;;;;;;5051056;28;20033;-86
2020/12/03 04:10:15;;;;;;;53.15;30.65;;;;;;;;;;5047533;28;20028;-85
2020/12/03 04:13:00;;;;;;;49.33;27.13;;;;;;;;;;5052549;28;20032;-86
2020/12/03 04:15:45;;;;;;;46.53;26.38;;;;;;;;;;5034919;28;20032;-85
2020/12/03 04:18:31;;;;;;;45.00;25.33;;;;;;;;;;5067554;28;20024;-85
2020/12/03 04:21:16;;;;;;;53.03;30.85;;;;;;;;;;5050999;28;20067;-86
2020/12/03 04:24:01;;;;;;;47.70;27.10;;;;;;;;;;5048846;28;20100;-85
2020/12/03 04:26:46;;;;;;;50.63;27.55;;;;;;;;;;5045398;28;20028;-85
2020/12/03 04:29:32;;;;;;;47.75;28.65;;;;;;;;;;5047131;28;20477;-86
2020/12/03 04:32:17;;;;;;;52.70;28.60;;;;;;;;;;5046595;28;20379;-84
2020/12/03 04:35:03;;;;;;;54.90;31.63;;;;;;;;;;5051647;28;20024;-84
2020/12/03 04:37:49;;;;;;;48.90;30.58;;;;;;;;;;5053438;28;20035;-86
2020/12/03 04:40:35;;;;;;;60.75;30.77;;;;;;;;;;5055670;28;20063;-86
2020/12/03 04:43:21;;;;;;;51.03;29.77;;;;;;;;;;5073448;28;20027;-87
2020/12/03 04:46:21;;;;;;;59.28;30.30;;;;;;;;;;5060436;28;20013;-87
2020/12/03 04:49:23;;;;;;;54.65;30.52;;;;;;;;;;5062900;28;20024;-87
2020/12/03 04:52:34;;;;;;;52.50;28.20;;;;;;;;;;5046498;28;20169;-86
2020/12/03 04:55:19;;;;;;;54.08;29.75;;;;;;;;;;5041716;28;20722;-88
2020/12/03 04:58:23;;;;;;;46.63;28.58;;;;;;;;;;5039060;28;20033;-85
2020/12/03 05:01:28;;;;;;;48.55;27.17;;;;;;;;;;5041618;28;20490;-86
2020/12/03 05:04:22;;;;;;;53.88;30.88;;;;;;;;;;5018690;28;20066;-85
2020/12/03 05:07:11;;;;;;;50.15;27.70;;;;;;;;;;5036644;28;20024;-86
2020/12/03 05:10:04;;;;;;;47.05;24.67;;;;;;;;;;5025396;28;20419;-85
2020/12/03 05:12:49;;;;;;;47.30;27.08;;;;;;;;;;5040859;28;20029;-86
2020/12/03 05:15:34;;;;;;;51.60;29.73;;;;;;;;;;5041983;28;20025;-85
2020/12/03 05:18:38;;;;;;;50.97;28.48;;;;;;;;;;5041073;28;20055;-85
2020/12/03 05:21:25;;;;;;;50.42;29.23;;;;;;;;;;5030944;28;20025;-85
2020/12/03 05:24:11;;;;;;;51.78;29.35;;;;;;;;;;5037923;28;20057;-85
2020/12/03 05:26:56;;;;;;;49.40;28.10;;;;;;;;;;5045245;28;20025;-88
2020/12/03 05:29:41;;;;;;;57.20;31.23;;;;;;;;;;5037888;28;20028;-85
2020/12/03 05:32:26;;;;;;;51.10;28.25;;;;;;;;;;5040749;28;20030;-85
2020/12/03 05:35:12;;;;;;;45.65;27.52;;;;;;;;;;5039144;28;20024;-86
2020/12/03 05:37:57;;;;;;;48.15;27.15;;;;;;;;;;5037419;28;20032;-83
2020/12/03 05:40:45;;;;;;;46.17;24.60;;;;;;;;;;5041062;28;20039;-83
2020/12/03 05:43:31;;;;;;;46.80;26.17;;;;;;;;;;5042390;28;20114;-85
2020/12/03 05:46:19;;;;;;;41.20;23.17;;;;;;;;;;5048736;28;20063;-84
2020/12/03 05:49:04;;;;;;;46.78;26.02;;;;;;;;;;5035973;28;20028;-84
2020/12/03 05:52:04;;;;;;;40.00;23.38;;;;;;;;;;5037773;28;20021;-85
2020/12/03 05:54:55;;;;;;;39.72;23.80;;;;;;;;;;5039454;28;20068;-86
2020/12/03 05:57:42;;;;;;;42.35;24.55;;;;;;;;;;5032990;28;20131;-84
2020/12/03 06:00:27;;;;;;;38.35;23.33;;;;;;;;;;5034203;28;20122;-86
2020/12/03 06:03:35;;;;;;;45.53;25.13;;;;;;;;;;5037434;28;20049;-86
2020/12/03 06:06:33;;;;;;;42.00;23.05;;;;;;;;;;5038622;28;20021;-85
2020/12/03 06:09:33;;;;;;;42.33;23.10;;;;;;;;;;5030721;28;20037;-85
2020/12/03 06:12:28;;;;;;;38.00;21.55;;;;;;;;;;5037845;28;20021;-84
2020/12/03 06:15:46;;;;;;;37.13;21.30;;;;;;;;;;5043825;28;20025;-85
2020/12/03 06:18:38;;;;;;;38.03;21.42;;;;;;;;;;5002292;28;20049;-86
2020/12/03 06:21:31;;;;;;;29.55;18.85;;;;;;;;;;5037810;28;20398;-86
2020/12/03 06:24:29;;;;;;;29.55;17.25;;;;;;;;;;5039852;28;20027;-87
2020/12/03 06:27:29;;;;;;;26.38;16.17;;;;;;;;;;5036897;28;20025;-85
2020/12/03 06:30:27;;;;;;;24.77;15.93;;;;;;;;;;5038360;28;20090;-85
2020/12/03 06:33:21;;;;;;;23.25;13.77;;;;;;;;;;5042594;28;20036;-84
2020/12/03 06:36:07;;;;;;;25.80;16.15;;;;;;;;;;5042418;28;20566;-84
2020/12/03 06:39:12;;;;;;;25.00;16.23;;;;;;;;;;5026533;28;20064;-84
2020/12/03 06:41:59;;;;;;;27.38;17.42;;;;;;;;;;5034780;28;20105;-85
2020/12/03 06:44:50;;;;;;;24.13;16.08;;;;;;;;;;5041333;28;20111;-84
2020/12/03 06:47:49;;;;;;;25.48;16.48;;;;;;;;;;5045920;28;20499;-85
2020/12/03 06:50:53;;;;;;;27.03;16.23;;;;;;;;;;5032233;28;20036;-85
2020/12/03 06:53:42;;;;;;;27.58;18.25;;;;;;;;;;5041632;28;20041;-85
2020/12/03 06:56:27;;;;;;;26.65;17.23;;;;;;;;;;5049741;28;20028;-86
2020/12/03 06:59:31;;;;;;;26.95;17.65;;;;;;;;;;5046211;28;20017;-83
2020/12/03 07:02:16;;;;;;;33.08;22.45;;;;;;;;;;5046247;28;20483;-83
2020/12/03 07:05:13;;;;;;;37.17;24.33;;;;;;;;;;5049765;28;20089;-85
2020/12/03 07:08:11;;;;;;;29.30;18.45;;;;;;;;;;5037207;28;20024;-83
2020/12/03 07:11:05;;;;;;;27.67;18.15;;;;;;;;;;5052760;28;20029;-83
2020/12/03 07:14:09;;;;;;;25.58;16.77;;;;;;;;;;5041475;28;20417;-83
2020/12/03 07:17:01;;;;;;;24.88;15.98;;;;;;;;;;5051857;28;20459;-82
2020/12/03 07:19:55;;;;;;;25.05;15.65;;;;;;;;;;5045858;28;20529;-83
2020/12/03 07:22:51;;;;;;;24.77;15.65;;;;;;;;;;5048393;28;20457;-83
2020/12/03 07:25:38;;;;;;;22.42;14.75;;;;;;;;;;5047024;28;20025;-85
2020/12/03 07:28:27;;;;;;;23.30;15.30;;;;;;;;;;5044721;28;20536;-85
2020/12/03 07:31:31;;;;;;;25.65;18.02;;;;;;;;;;5049945;28;20021;-85
2020/12/03 07:34:19;;;;;;;28.30;17.20;;;;;;;;;;5049690;28;20020;-86
2020/12/03 07:37:10;;;;;;;26.55;17.55;;;;;;;;;;5053815;28;20467;-85
2020/12/03 07:39:55;;;;;;;27.63;16.52;;;;;;;;;;5048892;28;20378;-88
2020/12/03 07:42:41;;;;;;;91.38;56.88;;;;;;;;;;5052358;28;20426;-88
2020/12/03 07:45:29;;;;;;;47.17;32.03;;;;;;;;;;5051222;28;20027;-88
2020/12/03 07:48:17;;;;;;;30.95;17.70;;;;;;;;;;5053114;28;20016;-84
2020/12/03 07:51:02;;;;;;;24.92;15.63;;;;;;;;;;5055074;28;20505;-87
2020/12/03 07:54:08;;;;;;;23.20;16.20;;;;;;;;;;5051521;28;20032;-87
2020/12/03 07:56:53;;;;;;;26.58;16.88;;;;;;;;;;5052453;28;20016;-87
2020/12/03 07:59:38;;;;;;;29.77;17.20;;;;;;;;;;5050045;28;20473;-86
2020/12/03 08:02:42;;;;;;;26.55;16.40;;;;;;;;;;5038258;28;20090;-85
2020/12/03 08:05:44;;;;;;;23.33;15.27;;;;;;;;;;5050441;28;20063;-84
2020/12/03 08:08:31;;;;;;;25.20;15.38;;;;;;;;;;5058503;28;20557;-83
2020/12/03 08:11:36;;;;;;;21.42;14.32;;;;;;;;;;5044860;28;20040;-85
2020/12/03 08:14:31;;;;;;;22.30;14.00;;;;;;;;;;5052774;28;20353;-86
2020/12/03 08:17:16;;;;;;;24.23;16.17;;;;;;;;;;5045617;28;20019;-85
2020/12/03 08:20:04;;;;;;;26.10;16.67;;;;;;;;;;5042612;28;20036;-83
2020/12/03 08:22:50;;;;;;;22.38;14.98;;;;;;;;;;5046935;28;20035;-86
2020/12/03 08:25:35;;;;;;;19.83;14.00;;;;;;;;;;5044540;28;20025;-86
2020/12/03 08:28:23;;;;;;;21.35;10.93;;;;;;;;;;5045302;28;20013;-84
2020/12/03 08:31:08;;;;;;;16.40;10.80;;;;;;;;;;5043731;28;20023;-82
2020/12/03 08:33:54;;;;;;;14.27;9.10;;;;;;;;;;5041570;28;20506;-82
2020/12/03 08:36:39;;;;;;;17.25;10.60;;;;;;;;;;5027827;28;20048;-81
2020/12/03 08:39:24;;;;;;;17.33;11.32;;;;;;;;;;5045297;28;20217;-82
2020/12/03 08:42:11;;;;;;;15.70;9.50;;;;;;;;;;5026071;28;20409;-81
2020/12/03 08:44:56;;;;;;;38.60;25.92;;;;;;;;;;5049042;28;20494;-81
2020/12/03 08:47:45;;;;;;;23.05;14.55;;;;;;;;;;5041610;28;20039;-83
2020/12/03 08:50:30;;;;;;;17.98;11.48;;;;;;;;;;5045083;28;20032;-83
2020/12/03 08:53:15;;;;;;;16.08;11.13;;;;;;;;;;5052615;28;20036;-82
2020/12/03 08:56:24;;;;;;;17.10;10.30;;;;;;;;;;5059938;28;20037;-82
2020/12/03 08:59:13;;;;;;;15.50;10.18;;;;;;;;;;5055828;28;20024;-82
2020/12/03 09:02:01;;;;;;;18.08;11.20;;;;;;;;;;5049830;28;20052;-81
2020/12/03 09:04:49;;;;;;;19.00;12.60;;;;;;;;;;5049372;28;20028;-81
2020/12/03 09:07:35;;;;;;;17.75;11.90;;;;;;;;;;5045101;28;20049;-81
2020/12/03 09:10:21;;;;;;;17.67;12.13;;;;;;;;;;5048843;28;20513;-82
2020/12/03 09:13:08;;;;;;;18.13;11.75;;;;;;;;;;5042104;28;20062;-82
2020/12/03 09:15:55;;;;;;;18.33;12.40;;;;;;;;;;5033388;28;20139;-83
2020/12/03 09:18:41;;;;;;;18.58;11.90;;;;;;;;;;5048207;28;20082;-82
2020/12/03 09:21:28;;;;;;;21.65;12.82;;;;;;;;;;5051090;28;20024;-81
2020/12/03 09:24:16;;;;;;;21.65;13.05;;;;;;;;;;5045037;28;20035;-80
2020/12/03 09:27:02;;;;;;;20.00;13.05;;;;;;;;;;5046147;28;20514;-82
2020/12/03 09:29:48;;;;;;;20.08;13.05;;;;;;;;;;5038461;28;20381;-82
2020/12/03 09:32:36;;;;;;;20.20;13.52;;;;;;;;;;5041387;28;20035;-82
2020/12/03 09:35:22;;;;;;;21.20;13.48;;;;;;;;;;5052640;28;20024;-82
2020/12/03 09:38:08;;;;;;;20.80;13.95;;;;;;;;;;5048780;28;20032;-83
2020/12/03 09:40:54;;;;;;;18.90;13.57;;;;;;;;;;5042288;28;20025;-83
2020/12/03 09:43:41;;;;;;;19.38;13.32;;;;;;;;;;5049587;28;20017;-83
2020/12/03 09:46:29;;;;;;;19.88;13.75;;;;;;;;;;5047129;28;20103;-83
2020/12/03 09:49:15;;;;;;;20.15;13.27;;;;;;;;;;5037537;28;20138;-80
2020/12/03 09:52:02;;;;;;;17.65;12.65;;;;;;;;;;5045247;28;20080;-83
2020/12/03 09:54:47;;;;;;;19.23;12.90;;;;;;;;;;5037333;28;20072;-85
2020/12/03 09:57:32;;;;;;;17.85;11.68;;;;;;;;;;5052289;28;20035;-85
2020/12/03 10:00:20;;;;;;;17.42;12.52;;;;;;;;;;5047971;28;20017;-86
2020/12/03 10:03:18;;;;;;;17.67;11.45;;;;;;;;;;5043977;28;20117;-83
2020/12/03 10:06:03;;;;;;;18.50;11.23;;;;;;;;;;5044420;28;20526;-83
2020/12/03 10:09:03;;;;;;;20.75;11.73;;;;;;;;;;5047872;28;20037;-83
2020/12/03 10:12:07;;;;;;;16.13;11.30;;;;;;;;;;5048394;28;20047;-82
2020/12/03 10:14:53;;;;;;;18.90;12.30;;;;;;;;;;5045716;28;20036;-83
2020/12/03 10:17:51;;;;;;;18.75;12.18;;;;;;;;;;5050500;28;20021;-82
2020/12/03 10:20:37;;;;;;;31.27;21.98;;;;;;;;;;5045637;28;20025;-83
2020/12/03 10:23:27;;;;;;;19.48;12.82;;;;;;;;;;5043106;28;20112;-82
2020/12/03 10:26:21;;;;;;;17.40;11.07;;;;;;;;;;5049363;28;20428;-85
2020/12/03 10:29:13;;;;;;;19.50;11.07;;;;;;;;;;5057725;28;20020;-85
2020/12/03 10:31:59;;;;;;;16.13;10.05;;;;;;;;;;5047000;28;20056;-83
2020/12/03 10:34:47;;;;;;;15.88;9.27;;;;;;;;;;5045495;28;20025;-83
2020/12/03 10:37:52;;;;;;;14.57;10.10;;;;;;;;;;5043188;28;20032;-84
2020/12/03 10:40:37;;;;;;;18.30;10.82;;;;;;;;;;5042360;28;20020;-85
2020/12/03 10:43:33;;;;;;;16.75;10.30;;;;;;;;;;5043222;28;20422;-81
2020/12/03 10:46:22;;;;;;;16.50;10.23;;;;;;;;;;5047206;28;20112;-83
2020/12/03 10:49:08;;;;;;;14.82;9.80;;;;;;;;;;5045449;28;20028;-84
2020/12/03 10:51:59;;;;;;;14.82;9.77;;;;;;;;;;5039927;28;20079;-85
2020/12/03 10:54:44;;;;;;;14.02;9.40;;;;;;;;;;5046766;28;20099;-84
2020/12/03 10:57:32;;;;;;;14.63;10.00;;;;;;;;;;5047145;28;20400;-86
2020/12/03 11:00:19;;;;;;;19.13;12.00;;;;;;;;;;5046515;28;20069;-86
2020/12/03 11:03:07;;;;;;;15.80;10.32;;;;;;;;;;5044710;28;20142;-83
2020/12/03 11:05:58;;;;;;;14.75;8.55;;;;;;;;;;5048121;28;20467;-84
2020/12/03 11:08:44;;;;;;;16.73;10.35;;;;;;;;;;5044259;28;20496;-81
2020/12/03 11:11:33;;;;;;;17.05;9.30;;;;;;;;;;5046200;28;20494;-83
2020/12/03 11:14:19;;;;;;;14.52;8.70;;;;;;;;;;5062649;28;20383;-82
2020/12/03 11:17:08;;;;;;;13.45;8.68;;;;;;;;;;5044417;28;20601;-81
2020/12/03 11:19:56;;;;;;;15.27;8.85;;;;;;;;;;5048371;28;20025;-81
2020/12/03 11:22:55;;;;;;;15.55;8.25;;;;;;;;;;5042860;28;20031;-82
2020/12/03 11:25:41;;;;;;;13.93;7.80;;;;;;;;;;5060822;28;20024;-82
2020/12/03 11:28:28;;;;;;;14.02;8.40;;;;;;;;;;5037259;28;20321;-81
2020/12/03 11:31:13;;;;;;;17.83;8.15;;;;;;;;;;5042758;28;20395;-84
2020/12/03 11:33:58;;;;;;;16.13;8.93;;;;;;;;;;5048089;28;20024;-82
2020/12/03 11:36:44;;;;;;;13.60;7.72;;;;;;;;;;5049573;28;20025;-82
2020/12/03 11:39:30;;;;;;;12.55;7.65;;;;;;;;;;5042725;28;20060;-81
2020/12/03 11:50:46;;;;;;;12.43;7.45;;;;;;;;;;5054882;28;20105;-80
2020/12/03 11:53:31;;;;;;;13.40;7.50;;;;;;;;;;5050184;28;20631;-81
2020/12/03 11:56:17;;;;;;;14.38;8.48;;;;;;;;;;5050272;28;20046;-81
2020/12/03 11:59:19;;;;;;;36.72;22.15;;;;;;;;;;5046378;28;20044;-82
2020/12/03 12:02:05;;;;;;;24.48;15.80;;;;;;;;;;5053734;28;20031;-87
2020/12/03 12:05:01;;;;;;;12.73;7.68;;;;;;;;;;5047780;28;20051;-85
2020/12/03 12:07:58;;;;;;;12.32;7.07;;;;;;;;;;5056180;28;20032;-86
2020/12/03 12:11:00;;;;;;;14.55;8.75;;;;;;;;;;5042848;28;20021;-87
2020/12/03 12:13:45;;;;;;;13.50;7.50;;;;;;;;;;5044687;28;20024;-86
2020/12/03 12:16:31;;;;;;;14.20;8.13;;;;;;;;;;5049442;28;20028;-85
2020/12/03 12:19:16;;;;;;;12.85;7.90;;;;;;;;;;5041940;28;20024;-86
2020/12/03 12:22:02;;;;;;;12.57;8.05;;;;;;;;;;5045880;28;20032;-89
2020/12/03 12:24:47;;;;;;;12.73;7.25;;;;;;;;;;5045104;28;20427;-87
2020/12/03 12:27:33;;;;;;;14.43;8.35;;;;;;;;;;5046888;28;20109;-86
2020/12/03 12:30:19;;;;;;;12.10;7.90;;;;;;;;;;5043583;28;20025;-86
2020/12/03 12:33:04;;;;;;;13.68;8.45;;;;;;;;;;5048183;28;20111;-85
2020/12/03 12:35:49;;;;;;;12.40;7.30;;;;;;;;;;5046245;28;20028;-88
2020/12/03 12:38:35;;;;;;;13.60;7.63;;;;;;;;;;5046833;28;20471;-84
2020/12/03 12:41:20;;;;;;;12.10;7.68;;;;;;;;;;5044342;28;20012;-88
2020/12/03 12:44:05;;;;;;;14.02;7.70;;;;;;;;;;5054760;28;20020;-88
2020/12/03 12:46:55;;;;;;;11.68;7.30;;;;;;;;;;5034758;28;20032;-88
2020/12/03 12:49:40;;;;;;;13.75;7.65;;;;;;;;;;5046662;28;20820;-89
2020/12/03 12:52:25;;;;;;;12.18;7.88;;;;;;;;;;5046384;28;20032;-86
2020/12/03 12:55:10;;;;;;;14.98;7.93;;;;;;;;;;5050065;28;20135;-87
2020/12/03 12:57:56;;;;;;;12.90;8.32;;;;;;;;;;5042771;28;20089;-86
2020/12/03 13:00:41;;;;;;;13.70;7.90;;;;;;;;;;5045575;28;20103;-85
2020/12/03 13:03:26;;;;;;;13.73;8.13;;;;;;;;;;5057801;28;20040;-85
2020/12/03 13:06:11;;;;;;;12.60;8.32;;;;;;;;;;5049998;28;20038;-84
2020/12/03 13:08:57;;;;;;;12.52;7.68;;;;;;;;;;5058233;28;20540;-84
2020/12/03 13:11:42;;;;;;;13.10;7.43;;;;;;;;;;5051409;28;20013;-84
2020/12/03 13:14:28;;;;;;;15.50;8.10;;;;;;;;;;5067961;28;20037;-85
2020/12/03 13:17:13;;;;;;;14.80;7.70;;;;;;;;;;5049244;28;20031;-86
2020/12/03 13:19:58;;;;;;;16.02;8.00;;;;;;;;;;5051664;28;20462;-86
2020/12/03 13:22:43;;;;;;;13.57;8.13;;;;;;;;;;5050506;28;20021;-85
2020/12/03 13:25:28;;;;;;;11.68;7.47;;;;;;;;;;5051160;28;20582;-86
2020/12/03 13:28:14;;;;;;;14.05;7.57;;;;;;;;;;5044517;28;20044;-83
2020/12/03 13:30:59;;;;;;;14.18;7.93;;;;;;;;;;5032234;28;20078;-83
2020/12/03 13:33:44;;;;;;;16.17;7.95;;;;;;;;;;5045896;28;20016;-84
2020/12/03 13:36:29;;;;;;;12.75;7.25;;;;;;;;;;5049139;28;20112;-88
2020/12/03 13:39:15;;;;;;;12.05;8.00;;;;;;;;;;5042156;28;20044;-87
2020/12/03 13:42:00;;;;;;;14.98;8.27;;;;;;;;;;5043828;28;20040;-87
2020/12/03 13:44:45;;;;;;;14.23;7.55;;;;;;;;;;5046837;28;20026;-87
2020/12/03 13:47:30;;;;;;;13.00;7.38;;;;;;;;;;5040024;28;20108;-87
2020/12/03 13:50:16;;;;;;;14.77;7.72;;;;;;;;;;5054262;28;20116;-85
2020/12/03 13:53:01;;;;;;;14.57;7.55;;;;;;;;;;5048856;28;20025;-86
2020/12/03 13:55:46;;;;;;;13.02;7.32;;;;;;;;;;5039706;28;20051;-85
2020/12/03 13:58:31;;;;;;;14.13;7.38;;;;;;;;;;5033063;28;20036;-84
2020/12/03 14:01:17;;;;;;;13.55;8.02;;;;;;;;;;5043864;28;20388;-81
2020/12/03 14:04:02;;;;;;;12.63;7.82;;;;;;;;;;5036868;28;20036;-87
2020/12/03 14:06:48;;;;;;;12.18;7.80;;;;;;;;;;5034934;28;20087;-83
2020/12/03 14:09:33;;;;;;;13.35;7.78;;;;;;;;;;5040567;28;20160;-83
2020/12/03 14:12:18;;;;;;;16.33;8.57;;;;;;;;;;5038890;28;20087;-83
2020/12/03 14:15:04;;;;;;;13.88;8.10;;;;;;;;;;5039625;28;20031;-82
2020/12/03 14:17:49;;;;;;;13.30;7.70;;;;;;;;;;5040101;28;20040;-82
2020/12/03 14:20:34;;;;;;;14.73;7.70;;;;;;;;;;5035204;28;20025;-83
2020/12/03 14:23:19;;;;;;;14.50;8.27;;;;;;;;;;5041689;28;20099;-87
2020/12/03 14:26:05;;;;;;;11.95;7.80;;;;;;;;;;5035795;28;20436;-86
2020/12/03 14:28:50;;;;;;;14.73;8.60;;;;;;;;;;5044660;28;20057;-84
2020/12/03 14:31:35;;;;;;;29.27;17.90;;;;;;;;;;5040823;28;20129;-85
2020/12/03 14:34:21;;;;;;;13.63;8.50;;;;;;;;;;5042647;28;20070;-84
2020/12/03 14:37:06;;;;;;;15.00;8.93;;;;;;;;;;5056988;28;20127;-84
2020/12/03 14:39:51;;;;;;;16.55;9.18;;;;;;;;;;5036994;28;20467;-85
2020/12/03 14:42:37;;;;;;;18.92;10.15;;;;;;;;;;5042277;28;20029;-86
2020/12/03 14:45:22;;;;;;;17.70;9.68;;;;;;;;;;5035761;28;20021;-86
2020/12/03 14:48:07;;;;;;;14.52;8.63;;;;;;;;;;5041490;28;20032;-86
2020/12/03 14:50:53;;;;;;;16.95;9.10;;;;;;;;;;5036058;28;20028;-85
2020/12/03 14:53:38;;;;;;;15.20;8.43;;;;;;;;;;5040211;28;20036;-84
2020/12/03 14:56:23;;;;;;;13.77;8.13;;;;;;;;;;5037884;28;20487;-84
2020/12/03 14:59:11;;;;;;;15.05;8.30;;;;;;;;;;5046689;28;20032;-84
2020/12/03 15:01:57;;;;;;;14.70;8.00;;;;;;;;;;5046854;28;20094;-85
2020/12/03 15:04:42;;;;;;;16.50;9.07;;;;;;;;;;5048768;28;20057;-84
2020/12/03 15:07:27;;;;;;;12.43;7.53;;;;;;;;;;5048924;28;20036;-84
2020/12/03 15:10:21;;;;;;;15.05;8.35;;;;;;;;;;5047237;28;20051;-85
2020/12/03 15:13:06;;;;;;;14.02;8.18;;;;;;;;;;5054589;28;20040;-88
2020/12/03 15:15:53;;;;;;;27.45;14.15;;;;;;;;;;5045151;28;20052;-86
2020/12/03 15:18:38;;;;;;;29.20;17.60;;;;;;;;;;5031015;28;20025;-85
2020/12/03 15:21:23;;;;;;;18.55;11.05;;;;;;;;;;5049663;28;20053;-84
2020/12/03 15:24:12;;;;;;;16.15;9.48;;;;;;;;;;5046554;28;20029;-84
2020/12/03 15:26:57;;;;;;;23.90;10.02;;;;;;;;;;5043466;28;20025;-83
2020/12/03 15:29:42;;;;;;;18.60;10.45;;;;;;;;;;5054606;28;20135;-84
2020/12/03 15:32:28;;;;;;;17.65;9.45;;;;;;;;;;5048264;28;20539;-84
2020/12/03 15:35:13;;;;;;;18.85;9.82;;;;;;;;;;5046926;28;20028;-86
2020/12/03 15:37:59;;;;;;;18.60;10.70;;;;;;;;;;5045070;28;20025;-83
2020/12/03 15:40:44;;;;;;;17.50;10.90;;;;;;;;;;5047554;28;20103;-83
2020/12/03 15:43:29;;;;;;;16.40;10.10;;;;;;;;;;5044782;28;20024;-83
2020/12/03 15:46:15;;;;;;;16.90;8.85;;;;;;;;;;5049808;28;20028;-83
2020/12/03 15:49:00;;;;;;;15.38;9.05;;;;;;;;;;5046397;28;20033;-83
2020/12/03 15:51:49;;;;;;;19.75;10.27;;;;;;;;;;5053035;28;20554;-84
2020/12/03 15:54:35;;;;;;;20.52;11.13;;;;;;;;;;5045662;28;20455;-84
2020/12/03 15:57:21;;;;;;;18.50;11.00;;;;;;;;;;5043295;28;20056;-85
2020/12/03 16:00:06;;;;;;;27.30;11.95;;;;;;;;;;5044861;28;20078;-84
2020/12/03 16:02:51;;;;;;;22.35;11.48;;;;;;;;;;5044160;28;20729;-85
2020/12/03 16:05:37;;;;;;;24.35;11.50;;;;;;;;;;5038205;28;20082;-87
2020/12/03 16:08:22;;;;;;;55.70;33.08;;;;;;;;;;5043671;28;20201;-85
2020/12/03 16:11:07;;;;;;;27.23;16.33;;;;;;;;;;5034904;28;20371;-84
2020/12/03 16:13:53;;;;;;;23.38;12.90;;;;;;;;;;5045671;28;20024;-84
2020/12/03 16:16:38;;;;;;;24.30;11.80;;;;;;;;;;5030959;28;20029;-85
2020/12/03 16:19:23;;;;;;;17.63;10.50;;;;;;;;;;5045952;28;20086;-84
2020/12/03 16:22:09;;;;;;;18.92;11.13;;;;;;;;;;5042373;28;20367;-85
2020/12/03 16:25:03;;;;;;;18.20;10.13;;;;;;;;;;5045616;28;20035;-88
2020/12/03 16:27:48;;;;;;;18.05;10.93;;;;;;;;;;5046542;28;20028;-86
2020/12/03 16:30:33;;;;;;;24.75;11.30;;;;;;;;;;5040431;28;20069;-89